sensor_id;sensor_type;location;lat;lon;timestamp;temperature;humidity
26479;DHT22;14163;-26.142;27.992;2023-02-11T00:01:18;23.30;99.90
26479;DHT22;14163;-26.142;27.992;2023-02-11T00:03:47;23.40;99.90
26479;DHT22;14163;-26.142;27.992;2023-02-11T00:06:17;23.50;99.90
26479;DHT22;14163;-26.142;27.992;2023-02-11T00:08:45;23.50;99.90
26479;DHT22;14163;-26.142;27.992;2023-02-11T00:11:14;23.50;99.90
26479;DHT22;14163;-26.142;27.992;2023-02-11T00:13:43;23.50;99.90
26479;DHT22;14163;-26.142;27.992;2023-02-11T00:16:12;23.50;99.90
26479;DHT22;14163;-26.142;27.992;2023-02-11T00:18:41;23.30;99.90
26479;DHT22;14163;-26.142;27.992;2023-02-11T00:21:10;23.30;99.90
26479;DHT22;14163;-26.142;27.992;2023-02-11T00:23:42;23.20;99.90
26479;DHT22;14163;-26.142;27.992;2023-02-11T00:26:11;23.20;99.90
26479;DHT22;14163;-26.142;27.992;2023-02-11T00:28:41;23.20;99.90
26479;DHT22;14163;-26.142;27.992;2023-02-11T00:31:09;23.20;99.90
26479;DHT22;14163;-26.142;27.992;2023-02-11T00:33:38;23.20;99.90
26479;DHT22;14163;-26.142;27.992;2023-02-11T00:36:08;23.20;99.90
26479;DHT22;14163;-26.142;27.992;2023-02-11T00:38:37;23.20;99.90
26479;DHT22;14163;-26.142;27.992;2023-02-11T00:41:08;23.20;99.90
26479;DHT22;14163;-26.142;27.992;2023-02-11T00:43:36;23.30;99.90
26479;DHT22;14163;-26.142;27.992;2023-02-11T00:46:04;23.40;99.90
26479;DHT22;14163;-26.142;27.992;2023-02-11T00:48:33;23.30;99.90
26479;DHT22;14163;-26.142;27.992;2023-02-11T00:51:01;23.30;99.90
26479;DHT22;14163;-26.142;27.992;2023-02-11T00:53:30;23.30;99.90
26479;DHT22;14163;-26.142;27.992;2023-02-11T00:55:58;23.30;99.90
26479;DHT22;14163;-26.142;27.992;2023-02-11T00:58:29;23.30;99.90
26479;DHT22;14163;-26.142;27.992;2023-02-11T01:00:59;23.30;99.90
26479;DHT22;14163;-26.142;27.992;2023-02-11T01:03:27;23.40;99.90
26479;DHT22;14163;-26.142;27.992;2023-02-11T01:05:56;23.30;99.90
26479;DHT22;14163;-26.142;27.992;2023-02-11T01:08:24;23.20;99.90
26479;DHT22;14163;-26.142;27.992;2023-02-11T01:10:53;23.20;99.90
26479;DHT22;14163;-26.142;27.992;2023-02-11T01:13:22;23.20;99.90
26479;DHT22;14163;-26.142;27.992;2023-02-11T01:15:53;23.20;99.90
26479;DHT22;14163;-26.142;27.992;2023-02-11T01:18:22;23.20;99.90
26479;DHT22;14163;-26.142;27.992;2023-02-11T01:20:50;23.20;99.90
26479;DHT22;14163;-26.142;27.992;2023-02-11T01:23:19;23.10;99.90
26479;DHT22;14163;-26.142;27.992;2023-02-11T01:25:47;23.10;99.90
26479;DHT22;14163;-26.142;27.992;2023-02-11T01:28:16;23.10;99.90
26479;DHT22;14163;-26.142;27.992;2023-02-11T01:30:44;23.00;99.90
26479;DHT22;14163;-26.142;27.992;2023-02-11T01:33:15;23.00;99.90
26479;DHT22;14163;-26.142;27.992;2023-02-11T01:35:44;22.90;99.90
26479;DHT22;14163;-26.142;27.992;2023-02-11T01:38:14;22.90;99.90
26479;DHT22;14163;-26.142;27.992;2023-02-11T01:40:46;22.90;99.90
26479;DHT22;14163;-26.142;27.992;2023-02-11T01:43:14;22.80;99.90
26479;DHT22;14163;-26.142;27.992;2023-02-11T01:45:53;22.70;99.90
26479;DHT22;14163;-26.142;27.992;2023-02-11T01:48:25;22.60;99.90
26479;DHT22;14163;-26.142;27.992;2023-02-11T01:50:57;22.60;99.90
26479;DHT22;14163;-26.142;27.992;2023-02-11T01:53:26;22.50;99.90
26479;DHT22;14163;-26.142;27.992;2023-02-11T01:56:12;22.60;99.90
26479;DHT22;14163;-26.142;27.992;2023-02-11T01:58:58;22.70;99.90
26479;DHT22;14163;-26.142;27.992;2023-02-11T02:01:29;22.70;99.90
26479;DHT22;14163;-26.142;27.992;2023-02-11T02:04:02;22.70;99.90
26479;DHT22;14163;-26.142;27.992;2023-02-11T02:06:34;22.50;99.90
26479;DHT22;14163;-26.142;27.992;2023-02-11T02:09:03;22.50;99.90
26479;DHT22;14163;-26.142;27.992;2023-02-11T02:11:32;22.50;99.90
26479;DHT22;14163;-26.142;27.992;2023-02-11T02:14:01;22.50;99.90
26479;DHT22;14163;-26.142;27.992;2023-02-11T02:16:30;22.50;99.90
26479;DHT22;14163;-26.142;27.992;2023-02-11T02:19:04;22.70;99.90
26479;DHT22;14163;-26.142;27.992;2023-02-11T02:21:47;22.60;99.90
26479;DHT22;14163;-26.142;27.992;2023-02-11T02:24:27;22.50;99.90
26479;DHT22;14163;-26.142;27.992;2023-02-11T02:27:13;22.60;99.90
26479;DHT22;14163;-26.142;27.992;2023-02-11T02:32:59;22.50;99.90
26479;DHT22;14163;-26.142;27.992;2023-02-11T02:35:32;22.50;99.90
26479;DHT22;14163;-26.142;27.992;2023-02-11T02:38:05;22.50;99.90
26479;DHT22;14163;-26.142;27.992;2023-02-11T02:40:38;22.40;99.90
26479;DHT22;14163;-26.142;27.992;2023-02-11T02:43:09;22.40;99.90
26479;DHT22;14163;-26.142;27.992;2023-02-11T02:45:37;22.40;99.90
26479;DHT22;14163;-26.142;27.992;2023-02-11T02:48:20;22.60;99.90
26479;DHT22;14163;-26.142;27.992;2023-02-11T02:50:50;22.60;99.90
26479;DHT22;14163;-26.142;27.992;2023-02-11T02:53:23;22.50;99.90
26479;DHT22;14163;-26.142;27.992;2023-02-11T02:55:59;22.60;99.90
26479;DHT22;14163;-26.142;27.992;2023-02-11T03:01:17;22.40;99.90
26479;DHT22;14163;-26.142;27.992;2023-02-11T03:03:51;22.40;99.90
26479;DHT22;14163;-26.142;27.992;2023-02-11T03:06:24;22.40;99.90
26479;DHT22;14163;-26.142;27.992;2023-02-11T03:08:56;22.40;99.90
26479;DHT22;14163;-26.142;27.992;2023-02-11T03:11:26;22.50;99.90
26479;DHT22;14163;-26.142;27.992;2023-02-11T03:13:56;22.60;99.90
26479;DHT22;14163;-26.142;27.992;2023-02-11T03:16:28;22.60;99.90
26479;DHT22;14163;-26.142;27.992;2023-02-11T03:19:03;22.50;99.90
26479;DHT22;14163;-26.142;27.992;2023-02-11T03:21:33;22.70;99.90
26479;DHT22;14163;-26.142;27.992;2023-02-11T03:24:06;22.80;99.90
26479;DHT22;14163;-26.142;27.992;2023-02-11T03:26:37;22.80;99.90
26479;DHT22;14163;-26.142;27.992;2023-02-11T03:29:07;22.80;99.90
26479;DHT22;14163;-26.142;27.992;2023-02-11T03:31:38;22.70;99.90
26479;DHT22;14163;-26.142;27.992;2023-02-11T03:34:11;22.60;99.90
26479;DHT22;14163;-26.142;27.992;2023-02-11T03:36:40;22.50;99.90
26479;DHT22;14163;-26.142;27.992;2023-02-11T03:39:12;22.70;99.90
26479;DHT22;14163;-26.142;27.992;2023-02-11T03:41:43;22.70;99.90
26479;DHT22;14163;-26.142;27.992;2023-02-11T03:44:14;22.70;99.90
26479;DHT22;14163;-26.142;27.992;2023-02-11T03:46:43;22.70;99.90
26479;DHT22;14163;-26.142;27.992;2023-02-11T03:49:16;22.60;99.90
26479;DHT22;14163;-26.142;27.992;2023-02-11T03:51:45;22.60;99.90
26479;DHT22;14163;-26.142;27.992;2023-02-11T03:54:15;22.70;99.90
26479;DHT22;14163;-26.142;27.992;2023-02-11T03:56:48;22.70;99.90
26479;DHT22;14163;-26.142;27.992;2023-02-11T03:59:18;22.70;99.90
26479;DHT22;14163;-26.142;27.992;2023-02-11T04:01:47;22.50;99.90
26479;DHT22;14163;-26.142;27.992;2023-02-11T06:08:26;18.40;99.90
26479;DHT22;14163;-26.142;27.992;2023-02-11T06:10:55;18.60;99.90
26479;DHT22;14163;-26.142;27.992;2023-02-11T06:13:23;19.20;99.90
26479;DHT22;14163;-26.142;27.992;2023-02-11T06:15:55;19.90;99.90
26479;DHT22;14163;-26.142;27.992;2023-02-11T06:18:24;20.50;99.90
26479;DHT22;14163;-26.142;27.992;2023-02-11T06:20:52;21.00;99.90
26479;DHT22;14163;-26.142;27.992;2023-02-11T06:23:20;21.50;99.90
26479;DHT22;14163;-26.142;27.992;2023-02-11T06:25:51;21.80;99.90
26479;DHT22;14163;-26.142;27.992;2023-02-11T06:28:19;22.00;99.90
26479;DHT22;14163;-26.142;27.992;2023-02-11T06:30:47;22.10;99.90
26479;DHT22;14163;-26.142;27.992;2023-02-11T06:33:16;22.30;99.90
26479;DHT22;14163;-26.142;27.992;2023-02-11T06:35:44;22.40;99.90
26479;DHT22;14163;-26.142;27.992;2023-02-11T06:38:12;22.50;99.90
26479;DHT22;14163;-26.142;27.992;2023-02-11T06:40:45;22.50;99.90
26479;DHT22;14163;-26.142;27.992;2023-02-11T06:43:15;22.40;99.90
26479;DHT22;14163;-26.142;27.992;2023-02-11T06:45:44;22.40;99.90
26479;DHT22;14163;-26.142;27.992;2023-02-11T06:48:12;22.40;99.90
26479;DHT22;14163;-26.142;27.992;2023-02-11T06:50:40;22.40;99.90
26479;DHT22;14163;-26.142;27.992;2023-02-11T06:53:09;22.60;99.90
26479;DHT22;14163;-26.142;27.992;2023-02-11T06:55:37;22.60;99.90
26479;DHT22;14163;-26.142;27.992;2023-02-11T06:58:05;22.50;99.90
26479;DHT22;14163;-26.142;27.992;2023-02-11T07:00:35;22.70;99.90
26479;DHT22;14163;-26.142;27.992;2023-02-11T07:03:04;22.90;99.90
26479;DHT22;14163;-26.142;27.992;2023-02-11T07:05:32;23.00;99.90
26479;DHT22;14163;-26.142;27.992;2023-02-11T07:08:02;23.10;99.90
26479;DHT22;14163;-26.142;27.992;2023-02-11T07:10:30;23.00;99.90
26479;DHT22;14163;-26.142;27.992;2023-02-11T07:12:58;23.00;99.90
26479;DHT22;14163;-26.142;27.992;2023-02-11T07:15:27;22.70;99.90
26479;DHT22;14163;-26.142;27.992;2023-02-11T07:17:57;22.70;99.90
26479;DHT22;14163;-26.142;27.992;2023-02-11T07:20:25;22.90;99.90
26479;DHT22;14163;-26.142;27.992;2023-02-11T07:22:54;23.00;99.90
26479;DHT22;14163;-26.142;27.992;2023-02-11T07:25:22;23.10;99.90
26479;DHT22;14163;-26.142;27.992;2023-02-11T07:27:50;23.10;99.90
26479;DHT22;14163;-26.142;27.992;2023-02-11T07:30:19;22.90;99.90
26479;DHT22;14163;-26.142;27.992;2023-02-11T07:32:47;23.00;99.90
26479;DHT22;14163;-26.142;27.992;2023-02-11T07:35:17;23.00;99.90
26479;DHT22;14163;-26.142;27.992;2023-02-11T07:37:45;23.10;99.90
26479;DHT22;14163;-26.142;27.992;2023-02-11T07:40:14;23.00;99.90
26479;DHT22;14163;-26.142;27.992;2023-02-11T07:42:42;23.10;99.90
26479;DHT22;14163;-26.142;27.992;2023-02-11T07:45:10;23.10;99.90
26479;DHT22;14163;-26.142;27.992;2023-02-11T07:47:39;23.20;99.90
26479;DHT22;14163;-26.142;27.992;2023-02-11T07:50:07;23.20;99.90
26479;DHT22;14163;-26.142;27.992;2023-02-11T07:52:37;23.30;99.90
26479;DHT22;14163;-26.142;27.992;2023-02-11T07:55:06;23.20;99.90
26479;DHT22;14163;-26.142;27.992;2023-02-11T07:57:34;23.20;99.90
26479;DHT22;14163;-26.142;27.992;2023-02-11T08:00:03;23.20;99.90
26479;DHT22;14163;-26.142;27.992;2023-02-11T08:02:32;23.20;99.90
26479;DHT22;14163;-26.142;27.992;2023-02-11T08:05:00;23.20;99.90
26479;DHT22;14163;-26.142;27.992;2023-02-11T08:07:29;23.10;99.90
26479;DHT22;14163;-26.142;27.992;2023-02-11T08:09:59;23.10;99.90
26479;DHT22;14163;-26.142;27.992;2023-02-11T08:12:27;23.20;99.90
26479;DHT22;14163;-26.142;27.992;2023-02-11T08:14:55;23.20;99.90
26479;DHT22;14163;-26.142;27.992;2023-02-11T08:17:24;23.30;99.90
26479;DHT22;14163;-26.142;27.992;2023-02-11T08:19:52;23.50;99.90
26479;DHT22;14163;-26.142;27.992;2023-02-11T08:22:20;23.40;99.90
26479;DHT22;14163;-26.142;27.992;2023-02-11T08:24:51;23.50;99.90
26479;DHT22;14163;-26.142;27.992;2023-02-11T08:27:26;23.50;99.90
26479;DHT22;14163;-26.142;27.992;2023-02-11T08:29:54;23.40;99.90
26479;DHT22;14163;-26.142;27.992;2023-02-11T08:32:25;23.30;99.90
26479;DHT22;14163;-26.142;27.992;2023-02-11T08:34:53;22.80;99.90
26479;DHT22;14163;-26.142;27.992;2023-02-11T08:37:21;22.30;99.90
26479;DHT22;14163;-26.142;27.992;2023-02-11T08:39:50;22.10;99.90
26479;DHT22;14163;-26.142;27.992;2023-02-11T08:42:18;22.00;99.90
26479;DHT22;14163;-26.142;27.992;2023-02-11T08:44:48;22.10;99.90
26479;DHT22;14163;-26.142;27.992;2023-02-11T08:47:16;22.40;99.90
26479;DHT22;14163;-26.142;27.992;2023-02-11T08:49:45;22.50;99.90
26479;DHT22;14163;-26.142;27.992;2023-02-11T08:52:13;22.60;99.90
26479;DHT22;14163;-26.142;27.992;2023-02-11T08:54:41;22.70;99.90
26479;DHT22;14163;-26.142;27.992;2023-02-11T08:57:10;22.50;99.90
26479;DHT22;14163;-26.142;27.992;2023-02-11T08:59:38;22.60;99.90
26479;DHT22;14163;-26.142;27.992;2023-02-11T09:02:10;22.60;99.90
26479;DHT22;14163;-26.142;27.992;2023-02-11T09:04:39;22.40;99.90
26479;DHT22;14163;-26.142;27.992;2023-02-11T09:07:07;22.60;99.90
26479;DHT22;14163;-26.142;27.992;2023-02-11T09:09:35;22.50;99.90
26479;DHT22;14163;-26.142;27.992;2023-02-11T09:12:04;22.70;99.90
26479;DHT22;14163;-26.142;27.992;2023-02-11T09:14:32;22.80;99.90
26479;DHT22;14163;-26.142;27.992;2023-02-11T09:17:01;22.70;99.90
26479;DHT22;14163;-26.142;27.992;2023-02-11T09:19:31;22.80;99.90
26479;DHT22;14163;-26.142;27.992;2023-02-11T09:22:00;23.00;99.90
26479;DHT22;14163;-26.142;27.992;2023-02-11T09:24:28;23.10;99.90
26479;DHT22;14163;-26.142;27.992;2023-02-11T09:26:57;23.40;99.90
26479;DHT22;14163;-26.142;27.992;2023-02-11T09:29:25;23.30;99.90
26479;DHT22;14163;-26.142;27.992;2023-02-11T09:31:53;23.20;99.90
26479;DHT22;14163;-26.142;27.992;2023-02-11T09:34:22;23.30;99.90
26479;DHT22;14163;-26.142;27.992;2023-02-11T09:36:52;23.20;99.90
26479;DHT22;14163;-26.142;27.992;2023-02-11T09:39:20;23.00;99.90
26479;DHT22;14163;-26.142;27.992;2023-02-11T09:42:02;22.80;99.90
26479;DHT22;14163;-26.142;27.992;2023-02-11T09:44:35;22.70;99.90
26479;DHT22;14163;-26.142;27.992;2023-02-11T09:47:04;22.60;99.90
26479;DHT22;14163;-26.142;27.992;2023-02-11T09:49:34;22.70;99.90
26479;DHT22;14163;-26.142;27.992;2023-02-11T09:52:10;22.80;99.90
26479;DHT22;14163;-26.142;27.992;2023-02-11T09:54:44;22.80;99.90
26479;DHT22;14163;-26.142;27.992;2023-02-11T09:57:15;22.80;99.90
26479;DHT22;14163;-26.142;27.992;2023-02-11T09:59:43;22.70;99.90
26479;DHT22;14163;-26.142;27.992;2023-02-11T10:02:16;22.90;99.90
26479;DHT22;14163;-26.142;27.992;2023-02-11T10:04:56;23.00;99.90
26479;DHT22;14163;-26.142;27.992;2023-02-11T10:07:32;22.90;99.90
26479;DHT22;14163;-26.142;27.992;2023-02-11T10:10:07;22.50;99.90
26479;DHT22;14163;-26.142;27.992;2023-02-11T10:12:44;22.20;99.90
26479;DHT22;14163;-26.142;27.992;2023-02-11T10:15:16;22.20;99.90
26479;DHT22;14163;-26.142;27.992;2023-02-11T10:17:50;22.20;99.90
26479;DHT22;14163;-26.142;27.992;2023-02-11T10:20:24;22.20;99.90
26479;DHT22;14163;-26.142;27.992;2023-02-11T10:22:56;22.10;99.90
26479;DHT22;14163;-26.142;27.992;2023-02-11T10:25:26;22.40;99.90
26479;DHT22;14163;-26.142;27.992;2023-02-11T10:27:55;22.50;99.90
26479;DHT22;14163;-26.142;27.992;2023-02-11T10:30:27;22.40;99.90
26479;DHT22;14163;-26.142;27.992;2023-02-11T10:32:58;22.50;99.90
26479;DHT22;14163;-26.142;27.992;2023-02-11T10:35:27;22.50;99.90
26479;DHT22;14163;-26.142;27.992;2023-02-11T10:37:58;22.60;99.90
26479;DHT22;14163;-26.142;27.992;2023-02-11T10:40:28;22.50;99.90
26479;DHT22;14163;-26.142;27.992;2023-02-11T10:42:57;22.50;99.90
26479;DHT22;14163;-26.142;27.992;2023-02-11T10:45:27;22.50;99.90
26479;DHT22;14163;-26.142;27.992;2023-02-11T10:47:57;22.00;99.90
26479;DHT22;14163;-26.142;27.992;2023-02-11T10:50:26;20.90;99.90
26479;DHT22;14163;-26.142;27.992;2023-02-11T10:53:09;20.30;99.90
26479;DHT22;14163;-26.142;27.992;2023-02-11T10:55:38;20.20;99.90
26479;DHT22;14163;-26.142;27.992;2023-02-11T10:58:06;20.30;99.90
26479;DHT22;14163;-26.142;27.992;2023-02-11T11:00:34;20.20;99.90
26479;DHT22;14163;-26.142;27.992;2023-02-11T11:03:04;20.30;99.90
26479;DHT22;14163;-26.142;27.992;2023-02-11T11:05:34;20.10;99.90
26479;DHT22;14163;-26.142;27.992;2023-02-11T11:08:05;20.10;99.90
26479;DHT22;14163;-26.142;27.992;2023-02-11T11:10:35;20.00;99.90
26479;DHT22;14163;-26.142;27.992;2023-02-11T11:16:05;20.20;99.90
26479;DHT22;14163;-26.142;27.992;2023-02-11T11:18:34;20.60;99.90
26479;DHT22;14163;-26.142;27.992;2023-02-11T11:21:03;20.80;99.90
26479;DHT22;14163;-26.142;27.992;2023-02-11T11:23:34;20.90;99.90
26479;DHT22;14163;-26.142;27.992;2023-02-11T11:26:04;20.90;99.90
26479;DHT22;14163;-26.142;27.992;2023-02-11T11:28:35;21.20;99.90
26479;DHT22;14163;-26.142;27.992;2023-02-11T11:31:04;21.20;99.90
26479;DHT22;14163;-26.142;27.992;2023-02-11T11:33:33;21.30;99.90
26479;DHT22;14163;-26.142;27.992;2023-02-11T11:36:03;21.50;99.90
26479;DHT22;14163;-26.142;27.992;2023-02-11T11:38:32;21.50;99.90
26479;DHT22;14163;-26.142;27.992;2023-02-11T11:41:25;21.50;99.90
26479;DHT22;14163;-26.142;27.992;2023-02-11T11:43:55;21.50;99.90
26479;DHT22;14163;-26.142;27.992;2023-02-11T11:46:25;21.60;99.90
26479;DHT22;14163;-26.142;27.992;2023-02-11T11:48:54;21.60;99.90
26479;DHT22;14163;-26.142;27.992;2023-02-11T11:51:23;21.70;99.90
26479;DHT22;14163;-26.142;27.992;2023-02-11T11:53:53;21.70;99.90
26479;DHT22;14163;-26.142;27.992;2023-02-11T11:56:26;21.70;99.90
26479;DHT22;14163;-26.142;27.992;2023-02-11T11:58:55;21.70;99.90
26479;DHT22;14163;-26.142;27.992;2023-02-11T14:06:14;19.70;99.90
26479;DHT22;14163;-26.142;27.992;2023-02-11T14:09:00;19.90;99.90
26479;DHT22;14163;-26.142;27.992;2023-02-11T14:14:23;21.30;99.90
26479;DHT22;14163;-26.142;27.992;2023-02-11T14:19:49;22.50;99.90
26479;DHT22;14163;-26.142;27.992;2023-02-11T14:22:21;22.90;99.90
26479;DHT22;14163;-26.142;27.992;2023-02-11T14:24:51;23.20;99.90
26479;DHT22;14163;-26.142;27.992;2023-02-11T14:27:25;23.50;99.90
26479;DHT22;14163;-26.142;27.992;2023-02-11T14:30:01;23.60;99.90
26479;DHT22;14163;-26.142;27.992;2023-02-11T14:32:37;23.80;99.90
26479;DHT22;14163;-26.142;27.992;2023-02-11T14:35:09;23.90;99.90
26479;DHT22;14163;-26.142;27.992;2023-02-11T14:37:43;24.00;99.90
26479;DHT22;14163;-26.142;27.992;2023-02-11T14:40:17;24.00;99.90
26479;DHT22;14163;-26.142;27.992;2023-02-11T14:42:47;24.00;99.90
26479;DHT22;14163;-26.142;27.992;2023-02-11T14:45:18;24.10;99.90
26479;DHT22;14163;-26.142;27.992;2023-02-11T14:47:48;24.10;99.90
26479;DHT22;14163;-26.142;27.992;2023-02-11T14:50:21;24.10;99.90
26479;DHT22;14163;-26.142;27.992;2023-02-11T14:52:52;24.10;99.90
26479;DHT22;14163;-26.142;27.992;2023-02-11T14:55:26;24.20;99.90
26479;DHT22;14163;-26.142;27.992;2023-02-11T14:58:11;24.20;99.90
26479;DHT22;14163;-26.142;27.992;2023-02-11T15:00:47;24.20;99.90
26479;DHT22;14163;-26.142;27.992;2023-02-11T15:03:32;24.20;99.90
26479;DHT22;14163;-26.142;27.992;2023-02-11T15:06:02;24.20;99.90
26479;DHT22;14163;-26.142;27.992;2023-02-11T15:08:32;24.30;99.90
26479;DHT22;14163;-26.142;27.992;2023-02-11T15:11:02;24.30;99.90
26479;DHT22;14163;-26.142;27.992;2023-02-11T15:13:30;24.30;99.90
26479;DHT22;14163;-26.142;27.992;2023-02-11T15:16:00;24.30;99.90
26479;DHT22;14163;-26.142;27.992;2023-02-11T15:18:34;24.40;99.90
26479;DHT22;14163;-26.142;27.992;2023-02-11T15:21:03;24.40;99.90
26479;DHT22;14163;-26.142;27.992;2023-02-11T15:23:34;24.40;99.90
26479;DHT22;14163;-26.142;27.992;2023-02-11T15:26:02;24.40;99.90
26479;DHT22;14163;-26.142;27.992;2023-02-11T15:28:43;24.50;99.90
26479;DHT22;14163;-26.142;27.992;2023-02-11T15:31:14;24.50;99.90
26479;DHT22;14163;-26.142;27.992;2023-02-11T15:33:42;24.40;99.90
26479;DHT22;14163;-26.142;27.992;2023-02-11T15:36:11;24.40;99.90
26479;DHT22;14163;-26.142;27.992;2023-02-11T15:38:42;24.40;99.90
26479;DHT22;14163;-26.142;27.992;2023-02-11T15:43:53;24.40;99.90
26479;DHT22;14163;-26.142;27.992;2023-02-11T15:46:21;24.30;99.90
26479;DHT22;14163;-26.142;27.992;2023-02-11T15:48:51;24.30;99.90
26479;DHT22;14163;-26.142;27.992;2023-02-11T15:51:20;24.30;99.90
26479;DHT22;14163;-26.142;27.992;2023-02-11T15:53:52;24.30;99.90
26479;DHT22;14163;-26.142;27.992;2023-02-11T15:56:22;24.30;99.90
26479;DHT22;14163;-26.142;27.992;2023-02-11T15:58:52;24.30;99.90
26479;DHT22;14163;-26.142;27.992;2023-02-11T16:01:27;24.20;99.90
26479;DHT22;14163;-26.142;27.992;2023-02-11T16:03:55;24.20;99.90
26479;DHT22;14163;-26.142;27.992;2023-02-11T16:06:24;24.10;99.90
26479;DHT22;14163;-26.142;27.992;2023-02-11T16:09:00;24.20;99.90
26479;DHT22;14163;-26.142;27.992;2023-02-11T16:11:30;24.20;99.90
26479;DHT22;14163;-26.142;27.992;2023-02-11T16:13:58;24.20;99.90
26479;DHT22;14163;-26.142;27.992;2023-02-11T16:16:28;24.20;99.90
26479;DHT22;14163;-26.142;27.992;2023-02-11T16:18:57;24.10;99.90
26479;DHT22;14163;-26.142;27.992;2023-02-11T16:21:27;24.10;99.90
26479;DHT22;14163;-26.142;27.992;2023-02-11T16:24:00;24.10;99.90
26479;DHT22;14163;-26.142;27.992;2023-02-11T16:26:31;24.10;99.90
26479;DHT22;14163;-26.142;27.992;2023-02-11T16:29:03;24.10;99.90
26479;DHT22;14163;-26.142;27.992;2023-02-11T16:31:33;24.10;99.90
26479;DHT22;14163;-26.142;27.992;2023-02-11T16:34:01;24.10;99.90
26479;DHT22;14163;-26.142;27.992;2023-02-11T16:36:29;24.10;99.90
26479;DHT22;14163;-26.142;27.992;2023-02-11T16:38:58;24.10;99.90
26479;DHT22;14163;-26.142;27.992;2023-02-11T16:41:28;24.10;99.90
26479;DHT22;14163;-26.142;27.992;2023-02-11T16:43:56;24.10;99.90
26479;DHT22;14163;-26.142;27.992;2023-02-11T16:46:24;24.10;99.90
26479;DHT22;14163;-26.142;27.992;2023-02-11T16:48:53;24.00;99.90
26479;DHT22;14163;-26.142;27.992;2023-02-11T16:51:22;24.00;99.90
26479;DHT22;14163;-26.142;27.992;2023-02-11T16:53:51;24.00;99.90
26479;DHT22;14163;-26.142;27.992;2023-02-11T16:56:19;23.90;99.90
26479;DHT22;14163;-26.142;27.992;2023-02-11T16:58:49;23.90;99.90
26479;DHT22;14163;-26.142;27.992;2023-02-11T17:01:17;23.90;99.90
26479;DHT22;14163;-26.142;27.992;2023-02-11T17:03:46;23.90;99.90
26479;DHT22;14163;-26.142;27.992;2023-02-11T17:06:14;23.90;99.90
26479;DHT22;14163;-26.142;27.992;2023-02-11T17:08:42;23.90;99.90
26479;DHT22;14163;-26.142;27.992;2023-02-11T17:11:11;23.90;99.90
26479;DHT22;14163;-26.142;27.992;2023-02-11T17:13:41;23.90;99.90
26479;DHT22;14163;-26.142;27.992;2023-02-11T17:16:14;23.90;99.90
26479;DHT22;14163;-26.142;27.992;2023-02-11T17:18:43;23.90;99.90
26479;DHT22;14163;-26.142;27.992;2023-02-11T17:21:11;23.90;99.90
26479;DHT22;14163;-26.142;27.992;2023-02-11T17:23:40;23.90;99.90
26479;DHT22;14163;-26.142;27.992;2023-02-11T17:26:08;23.90;99.90
26479;DHT22;14163;-26.142;27.992;2023-02-11T17:28:36;23.90;99.90
26479;DHT22;14163;-26.142;27.992;2023-02-11T17:31:06;23.80;99.90
26479;DHT22;14163;-26.142;27.992;2023-02-11T17:33:36;23.80;99.90
26479;DHT22;14163;-26.142;27.992;2023-02-11T17:36:05;23.80;99.90
26479;DHT22;14163;-26.142;27.992;2023-02-11T17:38:34;23.80;99.90
26479;DHT22;14163;-26.142;27.992;2023-02-11T17:41:03;23.70;99.90
26479;DHT22;14163;-26.142;27.992;2023-02-11T17:43:31;23.70;99.90
26479;DHT22;14163;-26.142;27.992;2023-02-11T17:45:59;23.70;99.90
26479;DHT22;14163;-26.142;27.992;2023-02-11T17:48:28;23.70;99.90
26479;DHT22;14163;-26.142;27.992;2023-02-11T17:50:58;23.70;99.90
26479;DHT22;14163;-26.142;27.992;2023-02-11T17:53:26;23.70;99.90
26479;DHT22;14163;-26.142;27.992;2023-02-11T17:55:54;23.70;99.90
26479;DHT22;14163;-26.142;27.992;2023-02-11T17:58:23;23.70;99.90
26479;DHT22;14163;-26.142;27.992;2023-02-11T18:00:51;23.60;99.90
26479;DHT22;14163;-26.142;27.992;2023-02-11T18:03:19;23.50;99.90
26479;DHT22;14163;-26.142;27.992;2023-02-11T18:05:48;23.50;99.90
26479;DHT22;14163;-26.142;27.992;2023-02-11T18:08:18;23.70;99.90
26479;DHT22;14163;-26.142;27.992;2023-02-11T18:10:46;23.60;99.90
26479;DHT22;14163;-26.142;27.992;2023-02-11T18:13:14;23.60;99.90
26479;DHT22;14163;-26.142;27.992;2023-02-11T18:15:43;23.70;99.90
26479;DHT22;14163;-26.142;27.992;2023-02-11T18:18:11;23.70;99.90
26479;DHT22;14163;-26.142;27.992;2023-02-11T18:20:40;23.70;99.90
26479;DHT22;14163;-26.142;27.992;2023-02-11T18:23:08;23.60;99.90
26479;DHT22;14163;-26.142;27.992;2023-02-11T18:25:38;23.60;99.90
26479;DHT22;14163;-26.142;27.992;2023-02-11T18:28:08;23.60;99.90
26479;DHT22;14163;-26.142;27.992;2023-02-11T18:30:36;23.60;99.90
26479;DHT22;14163;-26.142;27.992;2023-02-11T18:33:04;23.60;99.90
26479;DHT22;14163;-26.142;27.992;2023-02-11T18:35:36;23.60;99.90
26479;DHT22;14163;-26.142;27.992;2023-02-11T18:38:05;23.60;99.90
26479;DHT22;14163;-26.142;27.992;2023-02-11T18:40:33;23.60;99.90
26479;DHT22;14163;-26.142;27.992;2023-02-11T18:43:03;23.60;99.90
26479;DHT22;14163;-26.142;27.992;2023-02-11T18:45:32;23.60;99.90
26479;DHT22;14163;-26.142;27.992;2023-02-11T18:48:00;23.60;99.90
26479;DHT22;14163;-26.142;27.992;2023-02-11T18:50:30;23.50;99.90
26479;DHT22;14163;-26.142;27.992;2023-02-11T18:52:58;23.50;99.90
26479;DHT22;14163;-26.142;27.992;2023-02-11T18:55:27;23.50;99.90
26479;DHT22;14163;-26.142;27.992;2023-02-11T18:57:55;23.50;99.90
26479;DHT22;14163;-26.142;27.992;2023-02-11T19:00:25;23.60;99.90
26479;DHT22;14163;-26.142;27.992;2023-02-11T19:02:53;23.50;99.90
26479;DHT22;14163;-26.142;27.992;2023-02-11T19:05:22;23.60;99.90
26479;DHT22;14163;-26.142;27.992;2023-02-11T19:07:54;23.50;99.90
26479;DHT22;14163;-26.142;27.992;2023-02-11T19:10:23;23.50;99.90
26479;DHT22;14163;-26.142;27.992;2023-02-11T19:12:52;23.50;99.90
26479;DHT22;14163;-26.142;27.992;2023-02-11T19:15:21;23.50;99.90
26479;DHT22;14163;-26.142;27.992;2023-02-11T19:17:51;23.50;99.90
26479;DHT22;14163;-26.142;27.992;2023-02-11T19:20:19;23.50;99.90
26479;DHT22;14163;-26.142;27.992;2023-02-11T19:22:47;23.40;99.90
26479;DHT22;14163;-26.142;27.992;2023-02-11T19:25:16;23.50;99.90
26479;DHT22;14163;-26.142;27.992;2023-02-11T19:27:44;23.40;99.90
26479;DHT22;14163;-26.142;27.992;2023-02-11T19:30:13;23.40;99.90
26479;DHT22;14163;-26.142;27.992;2023-02-11T19:32:41;23.40;99.90
26479;DHT22;14163;-26.142;27.992;2023-02-11T19:35:11;23.40;99.90
26479;DHT22;14163;-26.142;27.992;2023-02-11T19:37:39;23.40;99.90
26479;DHT22;14163;-26.142;27.992;2023-02-11T19:40:08;23.30;99.90
26479;DHT22;14163;-26.142;27.992;2023-02-11T19:42:37;23.40;99.90
26479;DHT22;14163;-26.142;27.992;2023-02-11T19:45:05;23.30;99.90
26479;DHT22;14163;-26.142;27.992;2023-02-11T19:47:34;23.30;99.90